createdAt,value
2018-11-03T00:01:53.127Z,100919.26
2018-11-03T00:04:21.745Z,100908.94
2018-11-03T00:06:50.369Z,100895.91
2018-11-03T00:09:19.011Z,100908.33
2018-11-03T00:11:47.625Z,100902.61
2018-11-03T00:14:16.245Z,100908.25
2018-11-03T00:16:44.765Z,100909.03
2018-11-03T00:19:13.431Z,100903.84
2018-11-03T00:21:42.058Z,100894.56
2018-11-03T00:24:10.878Z,100893.23
2018-11-03T00:26:39.465Z,100894.11
2018-11-03T00:29:08.050Z,100893.59
2018-11-03T00:31:36.594Z,100891.79
2018-11-03T00:34:05.520Z,100899.08
2018-11-03T00:36:34.155Z,100903.92
2018-11-03T00:39:02.993Z,100903.10
2018-11-03T00:41:31.541Z,100903.34
2018-11-03T00:44:00.117Z,100909.20
2018-11-03T00:46:28.652Z,100909.75
2018-11-03T00:48:57.180Z,100908.02
2018-11-03T00:51:25.786Z,100918.59
2018-11-03T00:53:54.345Z,100917.74
2018-11-03T00:56:23.126Z,100919.50
2018-11-03T00:58:51.730Z,100914.56
2018-11-03T01:01:20.269Z,100914.25
2018-11-03T01:03:48.829Z,100921.03
2018-11-03T01:06:17.415Z,100922.49
2018-11-03T01:08:45.962Z,100925.89
2018-11-03T01:11:14.713Z,100928.89
2018-11-03T01:13:43.430Z,100917.25
2018-11-03T01:16:11.970Z,100914.34
2018-11-03T01:18:40.562Z,100919.02
2018-11-03T01:21:09.141Z,100919.88
2018-11-03T01:23:37.724Z,100915.27
2018-11-03T01:26:06.475Z,100921.58
2018-11-03T01:28:35.888Z,100928.58
2018-11-03T01:31:04.501Z,100937.94
2018-11-03T01:33:33.029Z,100945.94
2018-11-03T01:36:01.654Z,100936.47
2018-11-03T01:38:30.207Z,100932.69
2018-11-03T01:40:58.732Z,100933.89
2018-11-03T01:43:27.309Z,100935.65
2018-11-03T01:45:55.869Z,100935.84
2018-11-03T01:48:24.505Z,100935.87
2018-11-03T01:50:53.086Z,100944.69
2018-11-03T01:53:21.894Z,100952.01
2018-11-03T01:55:50.634Z,100942.70
2018-11-03T01:58:19.371Z,100929.53
2018-11-03T02:00:48.105Z,100930.22
2018-11-03T02:03:16.655Z,100935.92
2018-11-03T02:05:45.275Z,100945.17
2018-11-03T02:08:13.853Z,100939.35
2018-11-03T02:10:42.437Z,100931.59
2018-11-03T02:13:11.057Z,100923.31
2018-11-03T02:15:39.821Z,100920.28
2018-11-03T02:18:08.417Z,100914.27
2018-11-03T02:20:37.001Z,100916.38
2018-11-03T02:23:05.607Z,100921.91
2018-11-03T02:25:34.217Z,100920.26
2018-11-03T02:28:02.820Z,100917.27
2018-11-03T02:30:31.567Z,100919.84
2018-11-03T02:33:00.372Z,100918.54
2018-11-03T02:35:29.508Z,100919.94
2018-11-03T02:37:58.085Z,100932.75
2018-11-03T02:40:26.673Z,100939.08
2018-11-03T02:42:55.480Z,100933.07
2018-11-03T02:45:24.097Z,100927.63
2018-11-03T02:47:54.517Z,100921.81
2018-11-03T02:50:23.122Z,100921.17
2018-11-03T02:52:51.664Z,100923.72
2018-11-03T02:55:20.213Z,100938.18
2018-11-03T02:57:48.868Z,100937.86
2018-11-03T03:00:17.652Z,100929.22
2018-11-03T03:02:46.219Z,100919.69
2018-11-03T03:05:14.805Z,100933.50
2018-11-03T03:07:43.354Z,100926.88
2018-11-03T03:10:13.106Z,100930.58
2018-11-03T03:12:41.715Z,100930.18
2018-11-03T03:15:11.710Z,100924.84
2018-11-03T03:17:40.575Z,100919.81
2018-11-03T03:20:10.990Z,100917.46
2018-11-03T03:22:39.579Z,100920.25
2018-11-03T03:25:09.453Z,100925.42
2018-11-03T03:27:38.149Z,100924.73
2018-11-03T03:30:07.391Z,100930.00
2018-11-03T03:32:36.148Z,100933.25
2018-11-03T03:35:04.787Z,100936.62
2018-11-03T03:37:33.352Z,100939.30
2018-11-03T03:40:01.916Z,100930.27
2018-11-03T03:42:30.474Z,100924.06
2018-11-03T03:44:59.082Z,100923.91
2018-11-03T03:47:27.696Z,100927.59
2018-11-03T03:49:56.422Z,100935.34
2018-11-03T03:52:25.018Z,100933.84
2018-11-03T03:54:53.687Z,100939.02
2018-11-03T03:57:22.472Z,100944.87
2018-11-03T03:59:51.084Z,100945.75
2018-11-03T04:02:19.697Z,100946.37
2018-11-03T04:04:48.292Z,100941.34
2018-11-03T04:07:16.833Z,100940.03
2018-11-03T04:09:45.364Z,100943.38
2018-11-03T04:12:13.945Z,100944.24
2018-11-03T04:14:42.494Z,100940.98
2018-11-03T04:17:11.235Z,100936.58
2018-11-03T04:19:40.128Z,100938.74
2018-11-03T04:22:09.532Z,100931.69
2018-11-03T04:24:38.098Z,100936.02
2018-11-03T04:27:06.977Z,100924.65
2018-11-03T04:29:36.932Z,100922.80
2018-11-03T04:32:05.537Z,100927.64
2018-11-03T04:34:34.560Z,100924.84
2018-11-03T04:37:03.707Z,100928.49
2018-11-03T04:39:32.330Z,100928.52
2018-11-03T04:42:00.969Z,100924.05
2018-11-03T04:44:29.707Z,100928.06
2018-11-03T04:46:58.446Z,100931.05
2018-11-03T04:49:27.122Z,100933.41
2018-11-03T04:51:55.846Z,100931.63
2018-11-03T04:54:24.468Z,100948.48
2018-11-03T04:56:53.081Z,100954.03
2018-11-03T04:59:21.654Z,100956.19
2018-11-03T05:01:50.289Z,100956.45
2018-11-03T05:04:18.918Z,100955.11
2018-11-03T05:06:47.626Z,100973.17
2018-11-03T05:09:16.323Z,100967.78
2018-11-03T05:11:45.011Z,100962.89
2018-11-03T05:14:13.802Z,100962.52
2018-11-03T05:16:42.432Z,100957.05
2018-11-03T05:19:11.169Z,100953.72
2018-11-03T05:21:39.762Z,100955.06
2018-11-03T05:24:08.505Z,100961.18
2018-11-03T05:26:37.061Z,100964.42
2018-11-03T05:29:05.933Z,100970.02
2018-11-03T05:31:34.470Z,100975.55
2018-11-03T05:34:03.109Z,100975.41
2018-11-03T05:36:31.681Z,100983.56
2018-11-03T05:39:00.233Z,100981.91
2018-11-03T05:41:28.965Z,100986.61
2018-11-03T05:43:57.499Z,100993.82
2018-11-03T05:46:26.022Z,101001.20
2018-11-03T05:48:54.820Z,101011.45
2018-11-03T05:51:23.374Z,101008.84
2018-11-03T05:53:52.254Z,101007.50
2018-11-03T05:56:21.096Z,101005.00
2018-11-03T05:58:49.668Z,101018.30
2018-11-03T06:01:18.406Z,101027.72
2018-11-03T06:03:47.018Z,101027.28
2018-11-03T06:06:15.578Z,101033.08
2018-11-03T06:08:44.169Z,101034.34
2018-11-03T06:11:13.001Z,101025.48
2018-11-03T06:13:41.538Z,101019.13
2018-11-03T06:16:10.081Z,101022.45
2018-11-03T06:18:38.653Z,101032.56
2018-11-03T06:21:07.214Z,101040.64
2018-11-03T06:23:35.885Z,101053.00
2018-11-03T06:26:04.698Z,101056.05
2018-11-03T06:28:33.561Z,101061.47
2018-11-03T06:31:02.128Z,101070.23
2018-11-03T06:33:31.005Z,101077.94
2018-11-03T06:35:59.730Z,101078.21
2018-11-03T06:38:29.154Z,101085.52
2018-11-03T06:40:57.781Z,101076.94
2018-11-03T06:43:26.417Z,101071.59
2018-11-03T06:45:55.005Z,101083.36
2018-11-03T06:48:23.700Z,101075.72
2018-11-03T06:50:52.265Z,101069.10
2018-11-03T06:53:21.203Z,101075.72
2018-11-03T06:55:49.831Z,101083.63
2018-11-03T06:58:18.377Z,101091.95
2018-11-03T07:00:46.950Z,101095.71
2018-11-03T07:03:15.613Z,101086.61
2018-11-03T07:05:44.253Z,101089.53
2018-11-03T07:08:12.829Z,101093.91
2018-11-03T07:10:41.642Z,101096.61
2018-11-03T07:13:10.268Z,101105.44
2018-11-03T07:15:38.954Z,101104.68
2018-11-03T07:18:07.535Z,101105.65
2018-11-03T07:20:36.106Z,101107.88
2018-11-03T07:23:05.022Z,101114.06
2018-11-03T07:25:33.671Z,101117.55
2018-11-03T07:28:02.426Z,101107.35
2018-11-03T07:30:31.041Z,101107.54
2018-11-03T07:32:59.809Z,101108.50
2018-11-03T07:35:28.337Z,101115.52
2018-11-03T07:37:56.887Z,101113.08
2018-11-03T07:40:25.499Z,101116.58
2018-11-03T07:42:54.057Z,101122.09
2018-11-03T07:45:22.601Z,101125.89
2018-11-03T07:47:51.215Z,101130.87
2018-11-03T07:50:20.009Z,101126.08
2018-11-03T07:52:48.811Z,101129.63
2018-11-03T07:55:17.495Z,101130.11
2018-11-03T07:57:47.288Z,101124.09
2018-11-03T08:00:15.909Z,101116.72
2018-11-03T08:02:44.665Z,101112.13
2018-11-03T08:05:13.246Z,101107.39
2018-11-03T08:07:41.885Z,101116.27
2018-11-03T08:10:11.642Z,101115.05
2018-11-03T08:12:40.300Z,101122.69
2018-11-03T08:15:10.716Z,101125.37
2018-11-03T08:17:39.986Z,101122.11
2018-11-03T08:20:10.044Z,101116.75
2018-11-03T08:22:38.701Z,101112.31
2018-11-03T08:25:07.842Z,101106.31
2018-11-03T08:27:36.794Z,101109.53
2018-11-03T08:30:07.409Z,101109.77
2018-11-03T08:32:36.245Z,101106.62
2018-11-03T08:35:06.010Z,101108.09
2018-11-03T08:37:34.671Z,101107.92
2018-11-03T08:40:03.427Z,101116.25
2018-11-03T08:42:32.096Z,101118.52
2018-11-03T08:45:00.814Z,101116.53
2018-11-03T08:47:29.616Z,101106.75
2018-11-03T08:49:58.284Z,101104.80
2018-11-03T08:52:26.887Z,101113.63
2018-11-03T08:54:55.549Z,101118.89
2018-11-03T08:57:24.402Z,101116.69
2018-11-03T08:59:53.070Z,101121.53
2018-11-03T09:02:21.778Z,101119.62
2018-11-03T09:04:50.416Z,101116.20
2018-11-03T09:07:19.131Z,101113.12
2018-11-03T09:09:47.891Z,101116.67
2018-11-03T09:12:17.590Z,101117.15
2018-11-03T09:14:46.405Z,101123.06
2018-11-03T09:17:15.429Z,101130.91
2018-11-03T09:19:44.192Z,101131.27
2018-11-03T09:22:12.848Z,101130.19
2018-11-03T09:24:41.504Z,101125.98
2018-11-03T09:27:10.173Z,101126.69
2018-11-03T09:29:39.267Z,101121.84
2018-11-03T09:32:08.019Z,101126.37
2018-11-03T09:34:36.654Z,101140.08
2018-11-03T09:37:06.205Z,101136.88
2018-11-03T09:39:34.849Z,101139.66
2018-11-03T09:42:03.765Z,101132.89
2018-11-03T09:44:32.497Z,101128.48
2018-11-03T09:47:01.182Z,101135.14
2018-11-03T09:49:29.945Z,101140.91
2018-11-03T09:51:58.567Z,101137.65
2018-11-03T09:54:28.068Z,101139.50
2018-11-03T09:56:56.633Z,101143.48
2018-11-03T09:59:25.298Z,101145.55
2018-11-03T10:01:54.191Z,101152.05
2018-11-03T10:04:22.780Z,101148.73
2018-11-03T10:06:51.459Z,101147.71
2018-11-03T10:09:20.161Z,101144.92
2018-11-03T10:11:48.694Z,101148.75
2018-11-03T10:14:17.559Z,101148.36
2018-11-03T10:16:46.142Z,101147.69
2018-11-03T10:19:14.682Z,101139.25
2018-11-03T10:21:43.380Z,101142.88
2018-11-03T10:24:12.075Z,101136.44
2018-11-03T10:26:40.636Z,101145.87
2018-11-03T10:29:09.392Z,101144.05
2018-11-03T10:31:38.025Z,101147.88
2018-11-03T10:34:07.135Z,101153.88
2018-11-03T10:36:35.733Z,101154.95
2018-11-03T10:39:06.176Z,101149.15
2018-11-03T10:41:34.788Z,101151.70
2018-11-03T10:44:03.585Z,101148.55
2018-11-03T10:46:32.388Z,101145.75
2018-11-03T10:49:01.076Z,101143.83
2018-11-03T10:51:29.634Z,101139.37
2018-11-03T10:53:58.244Z,101144.41
2018-11-03T10:56:26.857Z,101139.88
2018-11-03T10:58:55.398Z,101142.36
2018-11-03T11:01:29.397Z,101139.13
2018-11-03T11:04:03.401Z,101135.42
2018-11-03T11:06:37.401Z,101135.05
2018-11-03T11:09:12.414Z,101136.38
2018-11-03T11:11:46.348Z,101135.59
2018-11-03T11:14:15.359Z,101136.25
2018-11-03T11:16:44.091Z,101139.66
2018-11-03T11:19:13.210Z,101137.47
2018-11-03T11:21:41.761Z,101130.24
2018-11-03T11:24:10.975Z,101133.59
2018-11-03T11:26:39.609Z,101124.10
2018-11-03T11:29:08.249Z,101117.27
2018-11-03T11:31:36.957Z,101121.36
2018-11-03T11:34:06.063Z,101128.66
2018-11-03T11:36:34.746Z,101129.06
2018-11-03T11:39:04.153Z,101127.66
2018-11-03T11:41:32.730Z,101125.08
2018-11-03T11:44:01.332Z,101133.61
2018-11-03T11:46:29.950Z,101130.41
2018-11-03T11:48:58.537Z,101125.77
2018-11-03T11:51:27.129Z,101124.77
2018-11-03T11:53:55.962Z,101126.59
2018-11-03T11:56:24.689Z,101124.72
2018-11-03T11:58:53.246Z,101126.48
2018-11-03T12:01:21.823Z,101124.26
2018-11-03T12:03:50.405Z,101123.78
2018-11-03T12:06:18.965Z,101121.16
2018-11-03T12:08:47.531Z,101121.42
2018-11-03T12:11:16.173Z,101115.06
2018-11-03T12:13:44.735Z,101118.09
2018-11-03T12:16:13.582Z,101117.54
2018-11-03T12:18:42.316Z,101121.26
2018-11-03T12:21:10.873Z,101126.11
2018-11-03T12:23:39.422Z,101123.91
2018-11-03T12:26:08.366Z,101113.36
2018-11-03T12:28:36.925Z,101114.18
2018-11-03T12:31:05.981Z,101114.64
2018-11-03T12:33:34.617Z,101112.27
2018-11-03T12:36:03.229Z,101102.46
2018-11-03T12:38:31.785Z,101105.95
2018-11-03T12:41:00.460Z,101103.85
2018-11-03T12:43:29.113Z,101106.89
2018-11-03T12:45:57.734Z,101107.67
2018-11-03T12:48:26.593Z,101100.09
2018-11-03T12:50:55.291Z,101105.88
2018-11-03T12:53:23.834Z,101102.88
2018-11-03T12:55:52.490Z,101105.46
2018-11-03T12:58:21.037Z,101107.94
2018-11-03T13:00:49.578Z,101112.89
2018-11-03T13:03:18.253Z,101109.85
2018-11-03T13:05:47.038Z,101112.98
2018-11-03T13:08:15.593Z,101111.95
2018-11-03T13:10:44.169Z,101102.67
2018-11-03T13:13:12.707Z,101103.66
2018-11-03T13:15:41.265Z,101107.31
2018-11-03T13:18:10.107Z,101101.57
2018-11-03T13:20:38.685Z,101106.06
2018-11-03T13:23:07.238Z,101098.09
2018-11-03T13:25:35.825Z,101096.52
2018-11-03T13:28:04.421Z,101088.20
2018-11-03T13:30:32.978Z,101091.95
2018-11-03T13:33:01.549Z,101087.21
2018-11-03T13:35:30.127Z,101093.72
2018-11-03T13:37:58.774Z,101098.72
2018-11-03T13:40:27.355Z,101103.39
2018-11-03T13:42:55.949Z,101099.12
2018-11-03T13:45:24.494Z,101102.00
2018-11-03T13:47:53.075Z,101099.00
2018-11-03T13:50:21.810Z,101100.86
2018-11-03T13:52:50.376Z,101098.17
2018-11-03T13:55:19.022Z,101101.54
2018-11-03T13:57:47.557Z,101101.36
2018-11-03T14:00:17.465Z,101108.21
2018-11-03T14:02:46.829Z,101091.85
2018-11-03T14:05:15.757Z,101092.70
2018-11-03T14:07:44.305Z,101095.11
2018-11-03T14:10:14.532Z,101095.39
2018-11-03T14:12:43.893Z,101098.75
2018-11-03T14:15:13.963Z,101102.08
2018-11-03T14:17:42.583Z,101101.63
2018-11-03T14:20:12.753Z,101111.64
2018-11-03T14:22:41.805Z,101107.11
2018-11-03T14:25:12.126Z,101117.84
2018-11-03T14:27:41.257Z,101108.84
2018-11-03T14:30:11.274Z,101111.60
2018-11-03T14:32:39.858Z,101107.74
2018-11-03T14:35:09.205Z,101108.65
2018-11-03T14:37:37.910Z,101103.48
2018-11-03T14:40:08.997Z,101101.00
2018-11-03T14:42:37.808Z,101099.27
2018-11-03T14:45:07.503Z,101097.48
2018-11-03T14:47:36.226Z,101104.74
2018-11-03T14:50:05.507Z,101103.48
2018-11-03T14:52:35.974Z,101108.48
2018-11-03T14:55:04.686Z,101107.92
2018-11-03T14:57:33.226Z,101105.37
2018-11-03T15:00:02.222Z,101108.88
2018-11-03T15:02:30.906Z,101108.84
2018-11-03T15:04:59.544Z,101110.17
2018-11-03T15:07:28.094Z,101104.41
2018-11-03T15:09:56.689Z,101097.51
2018-11-03T15:12:25.215Z,101098.56
2018-11-03T15:14:53.794Z,101102.46
2018-11-03T15:17:22.546Z,101109.28
2018-11-03T15:19:51.157Z,101113.69
2018-11-03T15:22:19.732Z,101114.52
2018-11-03T15:24:48.501Z,101118.47
2018-11-03T15:27:17.062Z,101114.52
2018-11-03T15:29:45.705Z,101121.28
2018-11-03T15:32:14.341Z,101121.52
2018-11-03T15:34:43.151Z,101119.09
2018-11-03T15:37:11.896Z,101124.35
2018-11-03T15:39:40.502Z,101126.70
2018-11-03T15:42:09.094Z,101136.78
2018-11-03T16:02:38.067Z,101155.70
2018-11-03T16:05:06.628Z,101158.27
2018-11-03T16:07:35.150Z,101158.95
2018-11-03T16:10:03.779Z,101158.59
2018-11-03T16:12:32.478Z,101160.95
2018-11-03T16:15:01.205Z,101164.94
2018-11-03T16:17:29.777Z,101164.94
2018-11-03T16:19:58.378Z,101170.48
2018-11-03T16:22:26.956Z,101166.18
2018-11-03T16:24:55.737Z,101172.37
2018-11-03T16:35:06.201Z,101171.84
2018-11-03T16:37:34.790Z,101172.32
2018-11-03T16:40:03.463Z,101180.35
2018-11-03T16:42:32.152Z,101177.30
2018-11-03T16:45:00.785Z,101177.43
2018-11-03T16:47:29.371Z,101171.44
2018-11-03T16:49:57.950Z,101179.03
2018-11-03T16:52:26.561Z,101177.08
2018-11-03T16:54:55.270Z,101178.77
2018-11-03T16:57:23.897Z,101181.95
2018-11-03T16:59:52.545Z,101178.88
2018-11-03T17:02:21.137Z,101179.28
2018-11-03T17:04:49.724Z,101180.97
2018-11-03T17:07:18.279Z,101174.78
2018-11-03T17:09:46.820Z,101175.67
2018-11-03T17:12:15.458Z,101179.13
2018-11-03T17:14:44.032Z,101170.94
2018-11-03T17:17:12.623Z,101162.66
2018-11-03T17:19:41.230Z,101171.49
2018-11-03T17:22:09.761Z,101164.23
2018-11-03T17:24:38.302Z,101164.09
2018-11-03T17:27:06.918Z,101162.12
2018-11-03T17:29:35.483Z,101161.00
2018-11-03T17:32:05.342Z,101162.71
2018-11-03T17:34:34.097Z,101166.24
2018-11-03T17:37:02.657Z,101170.75
2018-11-03T17:39:31.304Z,101170.61
2018-11-03T17:41:59.909Z,101178.37
2018-11-03T17:44:28.578Z,101178.10
2018-11-03T17:46:57.121Z,101179.06
2018-11-03T17:49:25.782Z,101174.35
2018-11-03T17:51:54.390Z,101170.45
2018-11-03T17:54:22.917Z,101172.19
2018-11-03T17:56:51.510Z,101174.66
2018-11-03T17:59:20.046Z,101178.98
2018-11-03T18:01:48.578Z,101177.57
2018-11-03T18:04:17.174Z,101179.28
2018-11-03T18:06:45.790Z,101178.48
2018-11-03T18:09:14.360Z,101185.73
2018-11-03T18:11:42.943Z,101173.39
2018-11-03T18:14:11.541Z,101168.60
2018-11-03T18:16:40.074Z,101174.78
2018-11-03T18:19:08.658Z,101164.74
2018-11-03T18:21:37.237Z,101166.25
2018-11-03T18:24:05.997Z,101167.07
2018-11-03T18:26:34.683Z,101160.57
2018-11-03T18:29:03.385Z,101161.08
2018-11-03T18:31:31.981Z,101157.52
2018-11-03T18:34:00.566Z,101154.47
2018-11-03T18:36:29.133Z,101150.00
2018-11-03T18:38:57.705Z,101156.05
2018-11-03T18:41:26.306Z,101156.58
2018-11-03T18:43:54.865Z,101157.14
2018-11-03T18:46:23.630Z,101160.45
2018-11-03T18:48:52.398Z,101160.78
2018-11-03T18:51:20.966Z,101156.45
2018-11-03T18:53:49.534Z,101157.09
2018-11-03T18:56:18.177Z,101160.78
2018-11-03T18:58:46.717Z,101155.30
2018-11-03T19:01:15.277Z,101149.63
2018-11-03T19:03:43.892Z,101158.80
2018-11-03T19:06:12.442Z,101154.92
2018-11-03T19:08:40.988Z,101153.27
2018-11-03T19:11:10.116Z,101149.37
2018-11-03T19:13:38.969Z,101150.72
2018-11-03T19:16:08.159Z,101149.11
2018-11-03T19:18:36.928Z,101152.95
2018-11-03T19:21:05.540Z,101149.83
2018-11-03T19:23:34.139Z,101153.03
2018-11-03T19:26:02.931Z,101152.83
2018-11-03T19:28:31.465Z,101151.48
2018-11-03T19:31:01.047Z,101145.81
2018-11-03T19:33:32.787Z,101149.53
2018-11-03T19:36:01.410Z,101151.16
2018-11-03T19:38:30.103Z,101146.51
2018-11-03T19:40:58.969Z,101152.88
2018-11-03T19:43:27.674Z,101154.23
2018-11-03T19:45:56.230Z,101155.57
2018-11-03T19:48:24.923Z,101156.41
2018-11-03T19:50:53.886Z,101155.89
2018-11-03T19:53:22.522Z,101153.08
2018-11-03T19:55:51.312Z,101155.57
2018-11-03T19:58:19.955Z,101150.73
2018-11-03T20:00:49.173Z,101147.03
2018-11-03T20:03:17.883Z,101149.53
2018-11-03T20:05:46.602Z,101149.83
2018-11-03T20:08:15.194Z,101137.14
2018-11-03T20:10:43.883Z,101145.36
2018-11-03T20:13:12.448Z,101137.16
2018-11-03T20:15:41.083Z,101138.87
2018-11-03T20:18:10.008Z,101139.41
2018-11-03T20:20:38.589Z,101138.23
2018-11-03T20:23:07.171Z,101139.25
2018-11-03T20:25:35.769Z,101136.52
2018-11-03T20:28:04.374Z,101131.56
2018-11-03T20:30:32.945Z,101128.06
2018-11-03T20:33:01.636Z,101121.86
2018-11-03T20:35:30.378Z,101118.11
2018-11-03T20:37:59.041Z,101113.09
2018-11-03T20:40:27.721Z,101109.45
2018-11-03T20:42:56.342Z,101111.82
2018-11-03T20:45:25.012Z,101106.47
2018-11-03T20:47:53.599Z,101102.32
2018-11-03T20:50:22.224Z,101098.95
2018-11-03T20:52:50.865Z,101101.50
2018-11-03T20:55:19.498Z,101106.34
2018-11-03T20:57:48.083Z,101105.19
2018-11-03T21:00:17.011Z,101104.17
2018-11-03T21:10:28.525Z,101094.59
2018-11-03T21:12:57.137Z,101092.44
2018-11-03T21:15:25.726Z,101094.44
2018-11-03T21:17:54.334Z,101091.25
2018-11-03T21:20:22.991Z,101083.78
2018-11-03T21:22:51.757Z,101086.27
2018-11-03T21:25:20.443Z,101084.94
2018-11-03T21:27:49.059Z,101082.58
2018-11-03T21:30:17.817Z,101083.30
2018-11-03T21:32:46.571Z,101071.13
2018-11-03T21:35:15.284Z,101072.26
2018-11-03T21:37:43.871Z,101077.13
2018-11-03T21:40:12.442Z,101077.95
2018-11-03T21:42:41.051Z,101068.59
2018-11-03T21:45:09.975Z,101063.41
2018-11-03T21:47:38.584Z,101059.71
2018-11-03T21:57:49.067Z,101055.08
2018-11-03T22:00:17.690Z,101049.92
2018-11-03T22:02:48.790Z,101047.30
2018-11-03T22:05:17.749Z,101049.48
2018-11-03T22:07:46.391Z,101049.78
2018-11-03T22:10:15.288Z,101052.98
2018-11-03T22:12:44.198Z,101047.94
2018-11-03T22:15:12.872Z,101044.44
2018-11-03T22:17:42.465Z,101039.75
2018-11-03T22:20:12.074Z,101038.77
2018-11-03T22:22:41.227Z,101035.34
2018-11-03T22:25:11.508Z,101032.98
2018-11-03T22:27:40.145Z,101033.23
2018-11-03T22:30:10.798Z,101029.54
2018-11-03T22:32:40.114Z,101025.05
2018-11-03T22:35:08.702Z,101023.70
2018-11-03T22:37:37.414Z,101028.71
2018-11-03T22:40:06.765Z,101026.73
2018-11-03T22:42:35.530Z,101021.01
2018-11-03T22:45:04.461Z,101020.69
2018-11-03T22:47:33.047Z,101018.52
2018-11-03T22:50:01.610Z,101016.94
2018-11-03T22:52:30.233Z,101014.00
2018-11-03T22:54:59.011Z,101014.77
2018-11-03T22:57:27.594Z,101010.63
2018-11-03T22:59:56.170Z,101007.31
2018-11-03T23:02:24.712Z,101006.70
2018-11-03T23:04:53.339Z,100998.86
2018-11-03T23:07:21.943Z,101007.08
2018-11-03T23:09:50.802Z,100993.52
2018-11-03T23:12:19.412Z,101007.08
2018-11-03T23:14:48.283Z,101007.72
2018-11-03T23:17:16.821Z,100999.48
2018-11-03T23:19:45.484Z,101003.01
2018-11-03T23:22:14.099Z,101004.16
2018-11-03T23:24:42.825Z,100997.31
2018-11-03T23:27:11.390Z,100993.97
2018-11-03T23:29:40.394Z,100981.94
2018-11-03T23:32:09.115Z,100979.19
2018-11-03T23:34:37.657Z,100979.72
2018-11-03T23:37:06.749Z,100973.86
2018-11-03T23:39:35.345Z,100970.81
2018-11-03T23:42:03.974Z,100965.95
2018-11-03T23:44:32.580Z,100966.59
2018-11-03T23:47:01.123Z,100957.80
2018-11-03T23:49:29.752Z,100957.80
2018-11-03T23:51:58.372Z,100951.77
2018-11-03T23:54:27.046Z,100952.45
2018-11-03T23:56:55.736Z,100950.76
2018-11-03T23:59:24.364Z,100939.61
